Time;durP1;ratioP1;P1;durP2;ratioP2;P2;SDS_P1;SDS_P2;PMS_P1;PMS_P2;Temp;Humidity;BMP_temperature;BMP_pressure;BME280_temperature;BME280_humidity;BME280_pressure;Samples;Min_cycle;Max_cycle;Signal;HPM_P1;HPM_P2
2021/09/11 00:00:40;;;;;;;17.50;10.63;;;;;;;15.29;52.94;98611.00;4970708;28;20027;-69
2021/09/11 00:03:06;;;;;;;19.42;10.68;;;;;;;15.25;53.00;98612.81;4971921;28;20027;-68
2021/09/11 00:05:32;;;;;;;20.90;11.07;;;;;;;15.17;52.99;98604.19;4984415;28;20033;-67
2021/09/11 00:07:59;;;;;;;17.48;10.35;;;;;;;15.13;53.60;98608.72;4966244;28;20379;-68
2021/09/11 00:10:26;;;;;;;19.05;9.98;;;;;;;15.07;53.42;98600.94;4965969;28;20030;-68
2021/09/11 00:12:52;;;;;;;19.45;10.00;;;;;;;15.03;53.66;98604.34;4967799;28;20034;-68
2021/09/11 00:15:18;;;;;;;18.70;10.60;;;;;;;14.99;53.51;98603.34;4965810;28;20045;-68
2021/09/11 00:17:44;;;;;;;16.17;10.07;;;;;;;14.95;53.75;98607.06;4967528;28;20371;-68
2021/09/11 00:20:10;;;;;;;14.32;9.10;;;;;;;14.86;53.92;98598.75;4963780;28;20065;-68
2021/09/11 00:22:37;;;;;;;16.48;10.15;;;;;;;14.79;53.92;98599.25;4968069;28;20376;-68
2021/09/11 00:25:03;;;;;;;14.07;9.63;;;;;;;14.75;53.84;98595.50;4973591;28;20145;-68
2021/09/11 00:27:29;;;;;;;18.52;10.27;;;;;;;14.73;54.44;98601.31;4972010;28;20034;-68
2021/09/11 00:29:54;;;;;;;15.55;9.90;;;;;;;14.72;54.38;98587.84;4970325;28;20023;-68
2021/09/11 00:32:20;;;;;;;16.23;9.27;;;;;;;14.71;54.44;98597.25;4965116;28;20110;-68
2021/09/11 00:34:45;;;;;;;17.38;10.15;;;;;;;14.68;54.47;98598.66;4968413;28;20030;-68
2021/09/11 00:37:11;;;;;;;18.65;10.23;;;;;;;14.67;54.92;98591.53;4970952;28;20173;-68
2021/09/11 00:39:36;;;;;;;14.93;9.77;;;;;;;14.65;54.62;98593.81;4971992;28;20101;-69
2021/09/11 00:42:02;;;;;;;17.92;9.52;;;;;;;14.61;54.71;98592.00;4972243;28;20085;-68
2021/09/11 00:44:28;;;;;;;14.85;9.10;;;;;;;14.56;54.72;98590.22;4972375;28;20062;-68
2021/09/11 00:46:54;;;;;;;18.45;9.60;;;;;;;14.52;55.41;98589.22;4968391;28;20201;-68
2021/09/11 00:49:19;;;;;;;19.27;9.80;;;;;;;14.48;55.23;98593.75;4972873;28;20114;-67
2021/09/11 00:51:45;;;;;;;18.70;9.60;;;;;;;14.44;55.24;98590.81;4969927;28;20031;-68
2021/09/11 00:54:11;;;;;;;16.02;9.90;;;;;;;14.44;55.50;98590.81;4972056;28;20045;-68
2021/09/11 00:56:37;;;;;;;18.17;9.88;;;;;;;14.42;55.58;98588.38;4967913;28;20113;-68
2021/09/11 00:59:02;;;;;;;14.07;9.35;;;;;;;14.41;55.08;98591.47;4967685;28;20488;-69
2021/09/11 01:01:28;;;;;;;17.15;9.50;;;;;;;14.36;55.71;98588.84;4968355;28;20034;-68
2021/09/11 01:03:54;;;;;;;15.75;9.45;;;;;;;14.35;55.48;98590.75;4967701;28;20384;-68
2021/09/11 01:06:20;;;;;;;16.13;9.88;;;;;;;14.36;55.65;98586.06;4968599;28;20506;-68
2021/09/11 01:08:46;;;;;;;17.35;9.65;;;;;;;14.36;55.61;98594.34;4969424;28;20026;-68
2021/09/11 01:11:12;;;;;;;18.55;9.23;;;;;;;14.34;55.86;98597.41;4968059;28;20031;-69
2021/09/11 01:13:38;;;;;;;15.65;9.48;;;;;;;14.35;55.86;98601.81;4970516;28;20038;-68
2021/09/11 01:16:05;;;;;;;17.08;9.57;;;;;;;14.33;55.90;98598.53;4968857;28;20046;-68
2021/09/11 01:18:31;;;;;;;23.48;10.43;;;;;;;14.34;55.96;98594.66;4971460;28;20030;-68
2021/09/11 01:20:58;;;;;;;20.42;10.43;;;;;;;14.36;55.83;98602.63;4968645;28;20388;-68
2021/09/11 01:23:24;;;;;;;18.25;10.25;;;;;;;14.37;56.00;98601.50;4970539;28;20023;-68
2021/09/11 01:25:50;;;;;;;18.90;9.82;;;;;;;14.36;55.92;98592.41;4966048;28;20504;-68
2021/09/11 01:28:16;;;;;;;19.33;10.55;;;;;;;14.37;55.90;98593.22;4965016;28;20042;-69
2021/09/11 01:30:42;;;;;;;15.95;9.77;;;;;;;14.36;55.72;98597.13;4966753;28;20043;-70
2021/09/11 01:33:07;;;;;;;14.80;9.32;;;;;;;14.36;55.66;98602.63;4969079;28;20077;-68
2021/09/11 01:35:33;;;;;;;27.13;13.15;;;;;;;14.37;55.83;98595.97;4968091;28;20035;-68
2021/09/11 01:37:58;;;;;;;16.42;9.23;;;;;;;14.39;55.84;98597.28;4964750;28;20035;-68
2021/09/11 01:40:24;;;;;;;21.05;10.77;;;;;;;14.42;55.60;98604.13;4962182;28;20479;-68
2021/09/11 01:42:49;;;;;;;15.32;9.20;;;;;;;14.44;55.96;98594.38;4965304;28;20026;-68
2021/09/11 01:45:18;;;;;;;18.45;9.18;;;;;;;14.48;55.69;98597.31;4967646;28;20039;-68
2021/09/11 01:47:45;;;;;;;14.10;8.77;;;;;;;14.51;55.67;98595.88;4968137;28;20050;-68
2021/09/11 01:50:13;;;;;;;16.42;10.38;;;;;;;14.53;55.91;98591.66;4967621;28;20034;-67
2021/09/11 01:52:39;;;;;;;13.85;8.35;;;;;;;14.54;55.56;98595.22;4968564;28;20047;-68
2021/09/11 01:55:09;;;;;;;16.77;9.93;;;;;;;14.53;55.67;98593.59;4965713;28;20034;-68
2021/09/11 01:57:36;;;;;;;16.75;9.40;;;;;;;14.51;55.78;98593.91;4968045;28;20027;-68
2021/09/11 02:00:05;;;;;;;21.30;10.50;;;;;;;14.51;55.88;98595.88;4967506;28;20023;-68
2021/09/11 02:02:30;;;;;;;14.70;9.33;;;;;;;14.48;55.74;98591.00;4967004;28;20030;-68
2021/09/11 02:04:56;;;;;;;19.83;10.75;;;;;;;14.48;55.74;98594.53;4969726;28;20619;-68
2021/09/11 02:07:21;;;;;;;16.63;9.63;;;;;;;14.48;55.76;98610.31;4967047;28;20019;-68
2021/09/11 02:09:47;;;;;;;18.02;10.13;;;;;;;14.43;55.59;98591.97;4965349;28;20053;-69
2021/09/11 02:12:12;;;;;;;16.23;9.00;;;;;;;14.43;55.67;98587.22;4964761;28;20023;-68
2021/09/11 02:14:38;;;;;;;19.50;10.43;;;;;;;14.44;55.70;98588.06;4969976;28;20027;-68
2021/09/11 02:17:04;;;;;;;14.70;9.18;;;;;;;14.46;55.79;98593.25;4967721;28;20026;-69
2021/09/11 02:19:32;;;;;;;18.20;9.93;;;;;;;14.44;55.85;98591.63;4965608;28;20387;-68
2021/09/11 02:21:57;;;;;;;17.17;9.07;;;;;;;14.47;55.85;98592.13;4983847;28;20019;-68
2021/09/11 02:24:23;;;;;;;19.88;10.32;;;;;;;14.45;55.58;98589.69;4965382;28;20422;-69
2021/09/11 02:26:48;;;;;;;20.85;10.82;;;;;;;14.42;55.66;98588.38;4965219;28;20158;-68
2021/09/11 02:29:14;;;;;;;18.38;9.30;;;;;;;14.38;55.77;98601.16;4967335;28;20379;-67
2021/09/11 02:31:39;;;;;;;20.25;10.80;;;;;;;14.34;55.72;98588.34;4969065;28;20045;-68
2021/09/11 02:34:04;;;;;;;16.50;9.38;;;;;;;14.33;55.68;98595.78;4967998;28;20031;-68
2021/09/11 02:36:30;;;;;;;14.20;8.57;;;;;;;14.29;55.88;98584.59;4966205;28;20773;-69
2021/09/11 02:38:55;;;;;;;15.50;9.35;;;;;;;14.25;55.81;98585.56;4966116;28;20027;-68
2021/09/11 02:41:21;;;;;;;16.05;9.30;;;;;;;14.22;56.05;98588.94;4967274;28;20042;-68
2021/09/11 02:43:46;;;;;;;15.30;9.77;;;;;;;14.17;56.01;98587.13;4966538;28;20051;-68
2021/09/11 02:46:12;;;;;;;17.20;10.35;;;;;;;14.14;56.15;98588.56;4968196;28;20031;-68
2021/09/11 02:48:37;;;;;;;16.98;9.52;;;;;;;14.14;56.21;98588.56;4965350;28;20035;-69
2021/09/11 02:51:03;;;;;;;14.25;8.93;;;;;;;14.12;56.07;98596.34;4965221;28;20143;-69
2021/09/11 02:53:28;;;;;;;15.35;8.73;;;;;;;14.09;56.17;98594.22;4966151;28;20043;-69
2021/09/11 02:55:54;;;;;;;17.50;9.63;;;;;;;14.02;56.59;98591.09;4967909;28;20059;-69
2021/09/11 02:58:22;;;;;;;15.55;9.65;;;;;;;13.96;56.05;98592.34;4963101;28;20479;-69
2021/09/11 03:00:52;;;;;;;13.60;9.35;;;;;;;13.90;56.49;98597.19;4967485;28;20027;-69
2021/09/11 03:03:18;;;;;;;16.30;9.83;;;;;;;13.87;56.43;98594.25;4969099;28;20110;-69
2021/09/11 03:05:43;;;;;;;20.50;11.02;;;;;;;13.85;56.58;98594.56;4966911;28;20030;-69
2021/09/11 03:08:09;;;;;;;16.90;9.52;;;;;;;13.83;56.59;98594.91;4968807;28;20030;-69
2021/09/11 03:10:34;;;;;;;18.13;10.45;;;;;;;13.78;56.67;98597.78;4968995;28;20027;-69
2021/09/11 03:13:00;;;;;;;19.38;10.45;;;;;;;13.75;56.79;98584.63;4966394;28;20054;-69
2021/09/11 03:15:25;;;;;;;17.20;10.05;;;;;;;13.74;57.02;98596.78;4967811;28;20349;-68
2021/09/11 03:17:51;;;;;;;17.80;10.18;;;;;;;13.72;56.71;98599.03;4966755;28;20086;-68
2021/09/11 03:20:16;;;;;;;19.85;10.38;;;;;;;13.71;57.00;98591.88;4981746;28;20387;-68
2021/09/11 03:22:42;;;;;;;20.73;10.35;;;;;;;13.70;57.00;98593.81;4967872;28;20089;-67
2021/09/11 03:25:07;;;;;;;17.10;9.85;;;;;;;13.66;56.95;98592.00;4966716;28;20114;-68
2021/09/11 03:27:33;;;;;;;16.30;10.07;;;;;;;13.65;57.14;98587.63;4966786;28;20061;-68
2021/09/11 03:29:58;;;;;;;16.05;10.27;;;;;;;13.61;57.24;98581.09;4965707;28;20110;-67
2021/09/11 03:32:24;;;;;;;15.35;9.95;;;;;;;13.54;57.11;98585.13;4968409;28;20027;-67
2021/09/11 03:34:49;;;;;;;18.33;10.80;;;;;;;13.52;57.34;98589.31;4964198;28;20106;-68
2021/09/11 03:37:15;;;;;;;19.25;10.25;;;;;;;13.49;57.71;98590.75;4966555;28;20109;-67
2021/09/11 03:39:40;;;;;;;19.85;11.30;;;;;;;13.49;57.48;98582.47;4969047;28;20042;-68
2021/09/11 03:42:06;;;;;;;25.23;11.75;;;;;;;13.49;57.39;98582.47;4963898;28;20031;-68
2021/09/11 03:44:31;;;;;;;22.00;11.65;;;;;;;13.48;57.58;98586.34;4967724;28;20039;-67
2021/09/11 03:46:56;;;;;;;21.17;11.02;;;;;;;13.47;57.82;98589.44;4964495;28;20503;-68
2021/09/11 03:49:22;;;;;;;19.15;10.75;;;;;;;13.46;57.60;98583.09;4983968;28;20041;-68
2021/09/11 03:51:48;;;;;;;39.60;16.10;;;;;;;13.48;57.33;98583.59;4966647;28;20042;-68
2021/09/11 03:54:13;;;;;;;22.80;11.27;;;;;;;13.49;57.57;98571.47;4967146;28;20023;-67
2021/09/11 03:56:39;;;;;;;25.23;12.15;;;;;;;13.51;57.69;98568.41;4966987;28;20035;-68
2021/09/11 03:59:05;;;;;;;18.70;10.50;;;;;;;13.50;57.81;98575.84;4967098;28;20055;-68
2021/09/11 04:01:30;;;;;;;17.75;10.32;;;;;;;13.52;57.70;98576.34;4965514;28;20113;-68
2021/09/11 04:03:56;;;;;;;24.00;11.35;;;;;;;13.53;57.84;98582.69;4966570;28;20033;-68
2021/09/11 04:06:22;;;;;;;18.83;10.80;;;;;;;13.55;57.51;98578.47;4964536;28;20066;-67
2021/09/11 04:08:48;;;;;;;24.33;12.85;;;;;;;13.50;57.79;98573.09;4967712;28;20027;-68
2021/09/11 04:11:13;;;;;;;32.38;14.82;;;;;;;13.50;57.83;98575.03;4964118;28;20558;-67
2021/09/11 04:13:39;;;;;;;26.55;12.45;;;;;;;13.51;57.83;98585.75;4964970;28;20113;-67
2021/09/11 04:16:04;;;;;;;21.52;11.63;;;;;;;13.49;57.66;98587.19;4964689;28;20414;-68
2021/09/11 04:18:30;;;;;;;22.20;12.30;;;;;;;13.46;57.68;98585.06;4966639;28;20037;-67
2021/09/11 04:20:55;;;;;;;25.80;13.00;;;;;;;13.48;57.67;98589.13;4969419;28;20073;-67
2021/09/11 04:23:20;;;;;;;26.17;12.65;;;;;;;13.54;58.09;98590.63;4969118;28;20090;-67
2021/09/11 04:25:46;;;;;;;28.38;13.02;;;;;;;13.57;57.51;98594.72;4968655;28;20016;-68
2021/09/11 04:28:11;;;;;;;19.60;10.88;;;;;;;13.54;57.79;98590.63;4968191;28;20054;-67
2021/09/11 04:30:38;;;;;;;20.35;11.57;;;;;;;13.53;57.63;98600.03;4966971;28;20375;-67
2021/09/11 04:33:03;;;;;;;18.55;10.27;;;;;;;13.53;58.04;98589.00;4967209;28;20023;-67
2021/09/11 04:35:30;;;;;;;16.83;9.18;;;;;;;13.53;57.60;98588.19;4968553;28;20444;-67
2021/09/11 04:37:58;;;;;;;24.13;10.55;;;;;;;13.46;57.72;98588.63;4966856;28;20023;-68
2021/09/11 04:40:24;;;;;;;15.88;9.55;;;;;;;13.42;57.76;98595.06;4970265;28;20094;-67
2021/09/11 04:42:49;;;;;;;19.80;10.30;;;;;;;13.42;57.83;98586.81;4970877;28;20022;-68
2021/09/11 04:45:15;;;;;;;17.45;9.00;;;;;;;13.49;58.06;98592.69;4972099;28;20498;-67
2021/09/11 04:47:40;;;;;;;16.25;9.32;;;;;;;13.55;57.92;98596.97;4972085;28;20051;-68
2021/09/11 04:50:07;;;;;;;15.27;9.38;;;;;;;13.59;58.02;98597.97;4969769;28;20026;-68
2021/09/11 04:52:32;;;;;;;19.55;9.00;;;;;;;13.62;58.06;98591.00;4971119;28;20031;-68
2021/09/11 04:54:58;;;;;;;22.08;10.52;;;;;;;13.67;57.94;98599.94;4971544;28;20033;-68
2021/09/11 04:57:23;;;;;;;28.83;11.98;;;;;;;13.70;57.88;98598.53;4970843;28;20029;-68
2021/09/11 04:59:50;;;;;;;23.95;12.20;;;;;;;13.74;58.09;98598.69;4971515;28;20661;-68
2021/09/11 05:02:15;;;;;;;28.10;10.77;;;;;;;13.77;57.98;98601.66;4971158;28;20034;-68
2021/09/11 05:04:41;;;;;;;43.20;17.05;;;;;;;13.80;57.76;98600.22;4971752;28;20447;-68
2021/09/11 05:07:06;;;;;;;23.77;10.38;;;;;;;13.80;58.05;98609.31;4971889;28;20446;-67
2021/09/11 05:09:32;;;;;;;22.15;16.02;;;;;;;13.80;57.76;98603.78;4972006;28;20031;-68
2021/09/11 05:12:01;;;;;;;17.88;12.35;;;;;;;13.76;57.83;98607.47;4971849;28;20084;-68
2021/09/11 05:14:26;;;;;;;15.57;9.25;;;;;;;13.77;57.57;98615.44;4972033;28;20035;-68
2021/09/11 05:16:52;;;;;;;15.10;9.52;;;;;;;13.79;57.83;98609.59;4971767;28;20150;-68
2021/09/11 05:19:17;;;;;;;15.25;7.88;;;;;;;13.82;57.71;98611.75;4972084;28;20037;-67
2021/09/11 05:21:43;;;;;;;15.10;9.02;;;;;;;13.84;57.57;98607.56;4971680;28;20080;-67
2021/09/11 05:24:08;;;;;;;14.13;7.25;;;;;;;13.86;57.74;98601.72;4975386;28;20034;-68
2021/09/11 05:26:33;;;;;;;11.57;6.93;;;;;;;13.88;57.83;98612.41;4975220;28;20113;-68
2021/09/11 05:28:59;;;;;;;9.52;6.97;;;;;;;13.92;57.49;98610.66;4975015;28;20038;-67
2021/09/11 05:31:24;;;;;;;13.13;7.57;;;;;;;13.93;57.91;98599.31;4973658;28;20034;-67
2021/09/11 05:33:50;;;;;;;12.25;7.22;;;;;;;13.97;57.57;98602.25;4975291;28;20041;-68
2021/09/11 05:36:15;;;;;;;12.82;6.60;;;;;;;14.02;57.66;98604.09;4974859;28;20035;-67
2021/09/11 05:38:40;;;;;;;14.40;7.22;;;;;;;14.04;57.68;98599.06;4975037;28;20038;-67
2021/09/11 05:41:06;;;;;;;12.77;7.03;;;;;;;14.07;57.88;98606.69;4975173;28;20046;-68
2021/09/11 05:43:31;;;;;;;12.77;6.90;;;;;;;14.09;58.05;98609.94;4973667;28;20356;-67
2021/09/11 05:45:58;;;;;;;12.00;6.95;;;;;;;14.13;58.03;98613.69;4975141;28;20121;-68
2021/09/11 05:48:23;;;;;;;10.35;6.85;;;;;;;14.18;58.00;98610.00;4973299;28;20418;-67
2021/09/11 05:50:48;;;;;;;13.48;7.10;;;;;;;14.26;57.85;98606.50;4973511;28;20027;-67
2021/09/11 05:53:14;;;;;;;12.32;7.13;;;;;;;14.34;58.28;98604.91;4970658;28;20031;-67
2021/09/11 05:55:39;;;;;;;16.58;7.05;;;;;;;14.42;58.07;98601.38;4973694;28;20026;-68
2021/09/11 05:58:05;;;;;;;12.02;7.05;;;;;;;14.48;58.00;98605.59;4970081;28;20110;-67
2021/09/11 06:00:30;;;;;;;15.10;6.88;;;;;;;14.51;57.53;98604.94;4972189;28;20022;-68
2021/09/11 06:02:55;;;;;;;11.70;6.90;;;;;;;14.50;57.79;98608.84;4974232;28;20102;-68
2021/09/11 06:05:21;;;;;;;14.43;6.55;;;;;;;14.52;57.86;98603.81;4974631;28;20387;-68
2021/09/11 06:07:46;;;;;;;11.13;5.55;;;;;;;14.61;57.98;98600.28;4973299;28;20383;-68
2021/09/11 06:10:12;;;;;;;14.57;6.70;;;;;;;14.65;57.86;98602.09;4971243;28;20031;-68
2021/09/11 06:12:38;;;;;;;12.50;6.65;;;;;;;14.75;58.01;98595.50;4973951;28;20382;-68
2021/09/11 06:15:08;;;;;;;10.95;6.78;;;;;;;14.86;57.80;98602.34;4972258;28;20031;-68
2021/09/11 06:17:34;;;;;;;14.98;6.93;;;;;;;14.95;57.76;98610.66;4973747;28;20042;-68
2021/09/11 06:19:59;;;;;;;10.73;6.30;;;;;;;15.01;57.98;98612.13;4972227;28;20411;-68
2021/09/11 06:22:25;;;;;;;11.65;5.75;;;;;;;15.12;57.47;98614.56;4972485;28;20019;-68
2021/09/11 06:24:50;;;;;;;9.77;6.05;;;;;;;15.18;57.76;98613.28;4974302;28;20101;-68
2021/09/11 06:27:18;;;;;;;11.52;6.03;;;;;;;15.28;57.98;98614.94;4974635;28;20467;-68
2021/09/11 06:29:43;;;;;;;10.98;6.13;;;;;;;15.38;57.58;98616.56;4973167;28;20035;-68
2021/09/11 06:32:09;;;;;;;9.57;6.38;;;;;;;15.45;57.31;98617.69;4972891;28;20546;-68
2021/09/11 06:34:34;;;;;;;10.68;6.00;;;;;;;15.53;57.07;98604.19;4973839;28;20023;-68
2021/09/11 06:37:00;;;;;;;14.13;5.95;;;;;;;15.61;57.33;98617.19;4972507;28;20406;-68
2021/09/11 06:39:25;;;;;;;8.65;4.88;;;;;;;15.70;57.34;98623.50;4972213;28;20025;-67
2021/09/11 06:41:51;;;;;;;14.82;5.97;;;;;;;15.82;56.82;98624.81;4971790;28;20078;-68
2021/09/11 06:44:17;;;;;;;9.73;4.78;;;;;;;15.90;57.06;98615.72;4969857;28;20037;-68
2021/09/11 06:46:42;;;;;;;10.43;5.38;;;;;;;16.00;56.52;98618.16;4972321;28;20051;-67
2021/09/11 06:49:08;;;;;;;12.30;5.38;;;;;;;16.11;56.67;98615.84;4973428;28;20113;-68
2021/09/11 06:51:34;;;;;;;12.30;4.82;;;;;;;16.22;56.50;98613.53;4973196;28;20109;-67
2021/09/11 06:54:00;;;;;;;5.57;4.13;;;;;;;16.31;56.16;98600.50;4972501;28;20031;-68
2021/09/11 06:56:25;;;;;;;8.48;4.63;;;;;;;16.43;56.03;98607.28;4971899;28;20069;-67
2021/09/11 06:58:50;;;;;;;9.95;4.68;;;;;;;16.52;55.87;98608.03;4967467;28;20055;-68
2021/09/11 07:01:16;;;;;;;8.68;5.43;;;;;;;16.62;55.14;98604.91;4970732;28;20030;-68
2021/09/11 07:03:42;;;;;;;10.18;4.88;;;;;;;16.73;55.09;98615.63;4970299;28;20021;-68
2021/09/11 07:06:08;;;;;;;10.43;5.28;;;;;;;16.83;54.88;98609.72;4972995;28;20054;-68
2021/09/11 07:08:33;;;;;;;14.13;5.63;;;;;;;16.92;54.59;98606.88;4971346;28;20058;-68
2021/09/11 07:11:00;;;;;;;7.63;4.90;;;;;;;17.02;54.13;98602.94;4972390;28;20022;-68
2021/09/11 07:13:25;;;;;;;8.57;4.95;;;;;;;17.12;54.16;98605.31;4973034;28;20039;-68
2021/09/11 07:15:51;;;;;;;8.57;4.40;;;;;;;17.22;54.11;98606.88;4972322;28;20496;-69
2021/09/11 07:18:16;;;;;;;8.57;4.50;;;;;;;17.32;53.55;98609.25;4973464;28;20030;-67
2021/09/11 07:20:42;;;;;;;9.45;5.45;;;;;;;17.42;53.44;98610.81;4973390;28;20033;-67
2021/09/11 07:23:07;;;;;;;9.02;4.88;;;;;;;17.54;53.79;98604.50;4973247;28;20554;-68
2021/09/11 07:25:33;;;;;;;10.88;6.30;;;;;;;17.66;52.94;98609.31;4973523;28;20038;-69
2021/09/11 07:27:59;;;;;;;10.30;5.68;;;;;;;17.76;52.63;98611.66;4988291;28;20046;-68
2021/09/11 07:30:24;;;;;;;9.63;5.97;;;;;;;17.86;52.44;98613.22;4971755;28;20077;-68
2021/09/11 07:32:50;;;;;;;10.90;5.13;;;;;;;17.94;52.62;98617.84;4973044;28;20033;-68
2021/09/11 07:35:15;;;;;;;12.15;6.05;;;;;;;18.05;52.82;98621.03;4973314;28;20022;-69
2021/09/11 07:37:41;;;;;;;11.52;4.97;;;;;;;18.15;51.90;98619.78;4971708;28;20023;-69
2021/09/11 07:40:07;;;;;;;6.88;4.32;;;;;;;18.24;51.50;98626.06;4970327;28;20035;-68
2021/09/11 07:42:33;;;;;;;11.70;5.05;;;;;;;18.33;51.97;98627.94;4971509;28;20026;-69
2021/09/11 07:44:58;;;;;;;10.00;4.90;;;;;;;18.43;51.66;98624.69;4970637;28;20033;-68
2021/09/11 07:47:23;;;;;;;10.32;4.55;;;;;;;18.52;51.44;98624.63;4971477;28;20050;-69
2021/09/11 07:49:49;;;;;;;12.75;5.28;;;;;;;18.60;51.01;98623.66;4971574;28;20034;-69
2021/09/11 07:52:15;;;;;;;10.52;4.97;;;;;;;18.69;51.24;98627.16;4971464;28;20027;-69
2021/09/11 07:54:41;;;;;;;13.07;4.47;;;;;;;18.80;50.85;98627.50;4972212;28;20467;-69
2021/09/11 07:57:06;;;;;;;9.43;4.35;;;;;;;18.90;50.09;98629.03;4972691;28;20380;-70
2021/09/11 07:59:31;;;;;;;7.35;4.13;;;;;;;18.97;50.09;98632.03;4970535;28;20022;-68
2021/09/11 08:01:57;;;;;;;9.77;4.53;;;;;;;19.05;49.83;98630.31;4965007;28;20023;-68
2021/09/11 08:04:22;;;;;;;10.32;4.75;;;;;;;19.17;49.50;98637.81;4971071;28;20034;-68
2021/09/11 08:06:48;;;;;;;10.57;5.00;;;;;;;19.26;50.02;98629.34;4969818;28;20047;-69
2021/09/11 08:09:13;;;;;;;11.43;4.95;;;;;;;19.34;49.89;98634.78;4967838;28;20039;-68
2021/09/11 08:11:39;;;;;;;9.60;4.88;;;;;;;19.44;49.75;98633.50;4970078;28;20031;-68
2021/09/11 08:14:05;;;;;;;8.00;4.60;;;;;;;19.52;49.64;98634.50;4970343;28;20027;-68
2021/09/11 08:16:30;;;;;;;10.73;5.18;;;;;;;19.61;49.43;98626.00;4971120;28;20039;-67
2021/09/11 08:18:56;;;;;;;11.07;5.45;;;;;;;19.71;49.66;98633.06;4970652;28;20368;-68
2021/09/11 08:21:21;;;;;;;10.18;4.68;;;;;;;19.81;49.19;98626.19;4970392;28;20118;-68
2021/09/11 08:23:47;;;;;;;7.53;3.75;;;;;;;19.90;48.67;98629.66;4971038;28;20102;-68
2021/09/11 08:26:12;;;;;;;10.73;4.30;;;;;;;19.96;48.85;98614.31;4971508;28;20030;-68
2021/09/11 08:28:38;;;;;;;14.10;4.72;;;;;;;20.06;49.07;98624.91;4970627;28;20486;-67
2021/09/11 08:31:03;;;;;;;10.88;5.47;;;;;;;20.15;48.71;98626.75;4970041;28;20513;-68
2021/09/11 08:33:29;;;;;;;9.23;4.38;;;;;;;20.22;48.30;98624.94;4971625;28;20031;-68
2021/09/11 08:35:55;;;;;;;12.38;5.10;;;;;;;20.28;48.13;98627.47;4962466;28;20023;-68
2021/09/11 08:38:20;;;;;;;10.15;4.40;;;;;;;20.37;48.31;98625.34;4968867;28;20098;-68
2021/09/11 08:40:46;;;;;;;10.45;4.20;;;;;;;20.49;48.45;98621.66;4969822;28;20039;-67
2021/09/11 08:43:16;;;;;;;9.70;4.18;;;;;;;20.59;47.75;98626.69;4970802;28;20061;-68
2021/09/11 08:45:42;;;;;;;11.25;4.70;;;;;;;20.67;47.07;98627.66;4969241;28;20462;-68
2021/09/11 08:48:07;;;;;;;8.15;4.20;;;;;;;20.74;46.72;98625.06;4967204;28;20054;-68
2021/09/11 08:50:33;;;;;;;11.75;6.50;;;;;;;20.82;47.07;98615.75;4969622;28;20050;-67
2021/09/11 08:52:58;;;;;;;9.40;5.80;;;;;;;20.93;46.27;98621.56;4970525;28;20042;-67
2021/09/11 08:55:24;;;;;;;8.68;4.35;;;;;;;21.01;45.39;98616.97;4969782;28;20561;-68
2021/09/11 08:58:02;;;;;;;11.93;5.60;;;;;;;21.08;45.31;98616.34;4971085;28;20042;-68
2021/09/11 09:00:38;;;;;;;8.20;4.68;;;;;;;21.18;45.99;98618.56;4967077;28;20035;-69
2021/09/11 09:03:24;;;;;;;9.20;4.20;;;;;;;21.27;45.68;98610.00;4972964;28;20034;-68
2021/09/11 09:05:50;;;;;;;9.15;3.90;;;;;;;21.35;45.77;98611.78;4969345;28;20100;-69
2021/09/11 09:08:26;;;;;;;9.10;4.50;;;;;;;21.44;45.60;98602.34;4973289;28;20031;-67
2021/09/11 09:10:52;;;;;;;9.68;5.68;;;;;;;21.52;44.71;98604.97;4969174;28;20061;-67
2021/09/11 09:13:17;;;;;;;15.32;7.13;;;;;;;21.59;44.13;98600.69;4973713;28;20455;-67
2021/09/11 09:15:43;;;;;;;7.55;4.50;;;;;;;21.65;44.11;98597.28;4973898;28;20506;-67
2021/09/11 09:18:08;;;;;;;12.63;5.78;;;;;;;21.73;44.38;98603.81;4972008;28;20046;-69
2021/09/11 09:20:33;;;;;;;9.48;5.53;;;;;;;21.84;43.68;98604.00;4973818;28;20147;-70
2021/09/11 09:22:59;;;;;;;10.77;4.97;;;;;;;21.92;43.62;98597.38;4971991;28;20026;-68
2021/09/11 09:25:28;;;;;;;12.57;5.60;;;;;;;22.00;43.59;98599.16;4973943;28;20391;-69
2021/09/11 09:28:10;;;;;;;8.85;5.53;;;;;;;22.09;42.86;98610.06;4973314;28;20031;-68
2021/09/11 09:30:49;;;;;;;7.30;4.25;;;;;;;22.16;42.57;98595.47;4971666;28;20049;-68
2021/09/11 09:33:27;;;;;;;10.52;3.80;;;;;;;22.20;42.55;98596.34;4972089;28;20035;-70
2021/09/11 09:35:53;;;;;;;6.75;4.03;;;;;;;22.27;42.39;98599.22;4972986;28;20513;-68
2021/09/11 09:38:18;;;;;;;11.05;3.92;;;;;;;22.36;43.12;98599.00;4972686;28;20034;-69
2021/09/11 09:40:46;;;;;;;8.80;4.28;;;;;;;22.48;42.61;98597.22;4972140;28;20062;-68
2021/09/11 09:43:34;;;;;;;6.90;3.83;;;;;;;22.58;42.98;98603.00;4970340;28;20132;-68
2021/09/11 09:46:19;;;;;;;10.55;4.18;;;;;;;22.68;43.07;98595.16;4971273;28;20410;-68
2021/09/11 09:48:46;;;;;;;5.45;3.50;;;;;;;22.81;42.52;98601.38;4972254;28;20515;-68
2021/09/11 09:51:17;;;;;;;5.60;3.05;;;;;;;22.89;39.79;98600.28;4971246;28;20399;-68
2021/09/11 09:53:45;;;;;;;8.18;3.80;;;;;;;22.92;40.38;98590.34;4972063;28;20023;-68
2021/09/11 09:56:11;;;;;;;4.20;2.72;;;;;;;22.97;39.45;98593.59;4973054;28;20034;-68
2021/09/11 09:58:38;;;;;;;6.47;3.47;;;;;;;23.02;38.51;98589.69;4973690;28;20391;-68
2021/09/11 10:01:04;;;;;;;7.15;2.75;;;;;;;23.06;39.15;98593.34;4969573;28;20463;-68
2021/09/11 10:03:30;;;;;;;7.22;3.15;;;;;;;23.14;39.96;98595.06;4972127;28;20034;-68
2021/09/11 10:06:01;;;;;;;6.05;3.20;;;;;;;23.22;39.89;98593.22;4974003;28;20032;-68
2021/09/11 10:08:28;;;;;;;5.65;2.72;;;;;;;23.29;39.67;98595.28;4973739;28;20113;-68
2021/09/11 10:10:54;;;;;;;7.68;3.45;;;;;;;23.36;38.99;98600.16;4972557;28;20034;-68
2021/09/11 10:13:23;;;;;;;7.07;2.60;;;;;;;23.40;37.75;98601.84;4972823;28;20049;-67
2021/09/11 10:16:00;;;;;;;5.82;3.00;;;;;;;23.49;37.22;98587.56;4972095;28;20023;-69
2021/09/11 10:18:35;;;;;;;4.95;2.70;;;;;;;23.54;37.71;98590.03;4971798;28;20027;-69
2021/09/11 10:21:39;;;;;;;6.40;2.95;;;;;;;23.60;37.23;98599.72;4973923;28;20034;-69
2021/09/11 10:24:26;;;;;;;3.97;2.42;;;;;;;23.67;36.22;98595.34;4970703;28;20038;-69
2021/09/11 10:27:11;;;;;;;12.75;2.75;;;;;;;23.73;37.31;98597.47;4989211;28;20022;-69
2021/09/11 10:29:46;;;;;;;4.68;2.67;;;;;;;23.79;36.48;98597.91;4969470;28;20399;-69
2021/09/11 10:32:22;;;;;;;3.88;2.13;;;;;;;23.81;33.93;98603.16;4971633;28;20432;-68
2021/09/11 10:35:03;;;;;;;5.38;2.58;;;;;;;23.83;35.79;98597.97;4967382;28;20034;-67
2021/09/11 10:37:37;;;;;;;4.47;2.38;;;;;;;23.87;35.55;98596.81;4972813;28;20035;-67
2021/09/11 10:40:19;;;;;;;5.88;2.67;;;;;;;23.90;34.15;98596.03;4972263;28;20369;-69
2021/09/11 10:43:06;;;;;;;7.03;2.83;;;;;;;23.93;35.43;98594.47;4970311;28;20034;-69
2021/09/11 10:45:53;;;;;;;4.80;2.88;;;;;;;24.01;36.68;98593.38;4970380;28;20062;-69
2021/09/11 10:48:30;;;;;;;4.70;2.90;;;;;;;24.12;36.32;98598.31;4971310;28;20055;-69
2021/09/11 10:50:55;;;;;;;7.05;2.97;;;;;;;24.15;35.68;98589.91;4972628;28;20487;-70
2021/09/11 10:53:23;;;;;;;7.30;3.50;;;;;;;24.21;36.38;98594.00;4972742;28;20030;-69
2021/09/11 10:55:49;;;;;;;6.93;3.80;;;;;;;24.26;35.58;98587.22;4972650;28;20039;-68
2021/09/11 10:58:25;;;;;;;10.48;5.95;;;;;;;24.30;36.61;98584.47;4970849;28;20066;-69
2021/09/11 11:01:01;;;;;;;10.27;4.57;;;;;;;24.38;35.87;98592.53;4970572;28;20041;-69
2021/09/11 11:03:27;;;;;;;4.90;2.72;;;;;;;24.42;35.95;98589.78;4972165;28;20118;-69
2021/09/11 11:06:03;;;;;;;5.43;3.50;;;;;;;24.47;36.76;98588.63;4971686;28;20038;-69
2021/09/11 11:08:30;;;;;;;5.22;2.80;;;;;;;24.52;35.59;98591.88;4970975;28;20501;-69
2021/09/11 11:10:56;;;;;;;7.72;3.28;;;;;;;24.53;36.09;98581.47;4973113;28;20023;-68
2021/09/11 11:13:24;;;;;;;5.43;2.90;;;;;;;24.58;36.05;98583.09;4972266;28;20027;-68
2021/09/11 11:15:55;;;;;;;5.80;3.03;;;;;;;24.62;36.13;98587.56;4962573;28;20113;-69
2021/09/11 11:18:20;;;;;;;6.10;2.80;;;;;;;24.67;35.93;98581.56;4970924;28;20031;-69
2021/09/11 11:20:46;;;;;;;6.45;2.92;;;;;;;24.72;36.13;98582.44;4970322;28;20037;-69
2021/09/11 11:23:11;;;;;;;9.48;5.00;;;;;;;24.76;36.36;98578.47;4970666;28;20030;-69